sensor_id;sensor_type;location;lat;lon;timestamp;P1;P4;P2;P0;N10;N4;N25;N1;N05;TS
65875;SPS30;52657;51.128;5.938;2024-02-23T00:00:53;1.19;1.19;1.19;1.12;8.95;8.95;8.94;8.91;7.67;0.48
65875;SPS30;52657;51.128;5.938;2024-02-23T00:03:19;1.23;1.23;1.23;1.16;9.28;9.27;9.27;9.24;7.96;0.47
65875;SPS30;52657;51.128;5.938;2024-02-23T00:05:45;1.29;1.29;1.29;1.22;9.76;9.76;9.75;9.72;8.37;0.47
65875;SPS30;52657;51.128;5.938;2024-02-23T00:08:11;1.13;1.13;1.13;1.07;8.53;8.53;8.52;8.49;7.31;0.48
65875;SPS30;52657;51.128;5.938;2024-02-23T00:10:36;1.18;1.18;1.18;1.12;8.94;8.94;8.93;8.90;7.67;0.47
65875;SPS30;52657;51.128;5.938;2024-02-23T00:13:02;1.10;1.10;1.10;1.04;8.33;8.33;8.32;8.29;7.14;0.47
65875;SPS30;52657;51.128;5.938;2024-02-23T00:15:28;1.05;1.05;1.05;0.99;7.93;7.92;7.92;7.89;6.80;0.47
65875;SPS30;52657;51.128;5.938;2024-02-23T00:17:53;1.21;1.21;1.21;1.14;9.13;9.13;9.12;9.09;7.83;0.49
65875;SPS30;52657;51.128;5.938;2024-02-23T00:20:19;1.02;1.02;1.02;0.97;7.74;7.74;7.73;7.71;6.64;0.50
65875;SPS30;52657;51.128;5.938;2024-02-23T00:22:46;1.08;1.08;1.08;1.02;8.18;8.18;8.17;8.14;7.01;0.49
65875;SPS30;52657;51.128;5.938;2024-02-23T00:25:12;0.91;0.91;0.91;0.86;6.84;6.84;6.83;6.81;5.86;0.50
65875;SPS30;52657;51.128;5.938;2024-02-23T00:27:37;0.98;0.98;0.98;0.93;7.44;7.44;7.43;7.41;6.38;0.51
65875;SPS30;52657;51.128;5.938;2024-02-23T00:30:05;0.85;0.85;0.85;0.80;6.41;6.41;6.41;6.39;5.50;0.52
65875;SPS30;52657;51.128;5.938;2024-02-23T00:32:31;1.05;1.05;1.05;0.99;7.92;7.92;7.92;7.89;6.80;0.51
65875;SPS30;52657;51.128;5.938;2024-02-23T00:34:56;1.04;1.04;1.04;0.98;7.86;7.86;7.86;7.83;6.74;0.50
65875;SPS30;52657;51.128;5.938;2024-02-23T00:37:22;0.97;0.97;0.97;0.92;7.35;7.35;7.34;7.32;6.30;0.50
65875;SPS30;52657;51.128;5.938;2024-02-23T00:39:51;0.99;0.99;0.99;0.94;7.51;7.51;7.51;7.48;6.44;0.51
65875;SPS30;52657;51.128;5.938;2024-02-23T00:42:16;0.92;0.92;0.92;0.87;6.95;6.95;6.95;6.93;5.96;0.52
65875;SPS30;52657;51.128;5.938;2024-02-23T00:44:46;0.92;0.92;0.92;0.87;6.98;6.98;6.98;6.95;5.99;0.52
65875;SPS30;52657;51.128;5.938;2024-02-23T00:47:11;0.84;0.84;0.84;0.79;6.31;6.31;6.31;6.28;5.41;0.53
65875;SPS30;52657;51.128;5.938;2024-02-23T00:49:37;0.84;0.84;0.84;0.79;6.32;6.32;6.32;6.30;5.42;0.52
65875;SPS30;52657;51.128;5.938;2024-02-23T00:52:03;0.81;0.81;0.81;0.76;6.11;6.11;6.10;6.08;5.24;0.54
65875;SPS30;52657;51.128;5.938;2024-02-23T00:54:29;0.68;0.68;0.68;0.65;5.16;5.16;5.15;5.14;4.42;0.55
65875;SPS30;52657;51.128;5.938;2024-02-23T00:56:54;0.68;0.68;0.68;0.64;5.14;5.14;5.14;5.12;4.41;0.56
65875;SPS30;52657;51.128;5.938;2024-02-23T00:59:20;0.77;0.76;0.76;0.71;5.68;5.68;5.68;5.65;4.86;0.58
65875;SPS30;52657;51.128;5.938;2024-02-23T01:01:46;0.76;0.75;0.73;0.66;5.29;5.29;5.28;5.23;4.47;0.60
65875;SPS30;52657;51.128;5.938;2024-02-23T01:04:12;0.78;0.77;0.74;0.66;5.28;5.28;5.27;5.22;4.43;0.61
65875;SPS30;52657;51.128;5.938;2024-02-23T01:06:38;0.87;0.85;0.80;0.71;5.65;5.65;5.63;5.56;4.70;0.62
65875;SPS30;52657;51.128;5.938;2024-02-23T01:09:03;0.91;0.88;0.82;0.70;5.63;5.62;5.61;5.51;4.63;0.65
65875;SPS30;52657;51.128;5.938;2024-02-23T01:11:29;0.90;0.87;0.79;0.66;5.28;5.27;5.25;5.14;4.28;0.67
65875;SPS30;52657;51.128;5.938;2024-02-23T01:13:55;1.00;0.96;0.86;0.70;5.60;5.59;5.57;5.43;4.49;0.69
65875;SPS30;52657;51.128;5.938;2024-02-23T01:16:21;0.92;0.87;0.78;0.62;4.99;4.99;4.96;4.83;3.97;0.70
65875;SPS30;52657;51.128;5.938;2024-02-23T01:18:48;1.06;1.01;0.90;0.72;5.79;5.79;5.76;5.60;4.62;0.71
65875;SPS30;52657;51.128;5.938;2024-02-23T01:21:14;1.03;0.98;0.88;0.72;5.74;5.73;5.70;5.56;4.59;0.71
65875;SPS30;52657;51.128;5.938;2024-02-23T01:23:39;1.03;0.99;0.89;0.73;5.82;5.82;5.79;5.65;4.68;0.70
65875;SPS30;52657;51.128;5.938;2024-02-23T01:26:05;1.13;1.08;0.98;0.80;6.43;6.42;6.39;6.24;5.18;0.70
65875;SPS30;52657;51.128;5.938;2024-02-23T01:28:31;0.95;0.91;0.82;0.68;5.40;5.39;5.37;5.24;4.35;0.69
65875;SPS30;52657;51.128;5.938;2024-02-23T01:30:56;1.01;0.97;0.88;0.73;5.82;5.81;5.79;5.66;4.70;0.68
65875;SPS30;52657;51.128;5.938;2024-02-23T01:33:23;1.01;0.96;0.86;0.70;5.59;5.58;5.55;5.41;4.47;0.71
65875;SPS30;52657;51.128;5.938;2024-02-23T01:35:48;1.05;1.00;0.89;0.71;5.69;5.69;5.66;5.50;4.53;0.71
65875;SPS30;52657;51.128;5.938;2024-02-23T01:38:14;1.07;1.01;0.90;0.72;5.76;5.76;5.73;5.57;4.58;0.71
65875;SPS30;52657;51.128;5.938;2024-02-23T01:40:46;1.03;0.98;0.86;0.68;5.43;5.42;5.39;5.23;4.28;0.72
65875;SPS30;52657;51.128;5.938;2024-02-23T01:43:13;1.09;1.02;0.90;0.70;5.63;5.62;5.59;5.41;4.42;0.72
65875;SPS30;52657;51.128;5.938;2024-02-23T01:45:38;1.13;1.06;0.92;0.72;5.75;5.74;5.71;5.52;4.49;0.73
65875;SPS30;52657;51.128;5.938;2024-02-23T01:48:04;1.16;1.08;0.93;0.71;5.70;5.69;5.65;5.45;4.40;0.74
65875;SPS30;52657;51.128;5.938;2024-02-23T01:50:31;1.42;1.32;1.13;0.85;6.79;6.78;6.73;6.47;5.20;0.76
65875;SPS30;52657;51.128;5.938;2024-02-23T01:53:00;1.08;1.01;0.86;0.65;5.19;5.18;5.14;4.95;3.98;0.75
65875;SPS30;52657;51.128;5.938;2024-02-23T01:55:27;1.09;1.01;0.87;0.66;5.24;5.24;5.20;5.00;4.03;0.76
65875;SPS30;52657;51.128;5.938;2024-02-23T01:57:54;1.18;1.10;0.95;0.72;5.74;5.73;5.69;5.48;4.43;0.76
65875;SPS30;52657;51.128;5.938;2024-02-23T02:00:20;1.06;0.99;0.85;0.64;5.15;5.15;5.11;4.92;3.97;0.75
65875;SPS30;52657;51.128;5.938;2024-02-23T02:02:53;1.14;1.06;0.91;0.68;5.42;5.42;5.37;5.16;4.14;0.75
65875;SPS30;52657;51.128;5.938;2024-02-23T02:05:20;1.11;1.03;0.87;0.63;5.08;5.07;5.03;4.81;3.83;0.77
65875;SPS30;52657;51.128;5.938;2024-02-23T02:07:47;0.97;0.90;0.76;0.56;4.49;4.48;4.45;4.26;3.40;0.76
65875;SPS30;52657;51.128;5.938;2024-02-23T02:10:18;1.18;1.09;0.91;0.65;5.22;5.21;5.16;4.92;3.90;0.78
65875;SPS30;52657;51.128;5.938;2024-02-23T02:12:46;1.04;0.96;0.80;0.57;4.54;4.53;4.48;4.27;3.36;0.78
65875;SPS30;52657;51.128;5.938;2024-02-23T02:15:12;1.19;1.09;0.89;0.62;4.98;4.98;4.92;4.67;3.64;0.80
65875;SPS30;52657;51.128;5.938;2024-02-23T02:17:37;1.02;0.94;0.78;0.55;4.38;4.38;4.33;4.11;3.23;0.80
65875;SPS30;52657;51.128;5.938;2024-02-23T02:20:03;1.13;1.04;0.87;0.61;4.92;4.91;4.86;4.62;3.64;0.80
65875;SPS30;52657;51.128;5.938;2024-02-23T02:22:31;1.11;1.02;0.85;0.60;4.84;4.83;4.78;4.55;3.59;0.81
65875;SPS30;52657;51.128;5.938;2024-02-23T02:24:58;1.08;0.99;0.82;0.57;4.59;4.58;4.54;4.31;3.38;0.81
65875;SPS30;52657;51.128;5.938;2024-02-23T02:27:24;1.06;0.98;0.81;0.57;4.54;4.53;4.49;4.26;3.34;0.79
65875;SPS30;52657;51.128;5.938;2024-02-23T02:29:50;1.30;1.20;0.99;0.69;5.53;5.53;5.47;5.19;4.06;0.79
65875;SPS30;52657;51.128;5.938;2024-02-23T02:32:16;1.04;0.95;0.77;0.53;4.26;4.25;4.20;3.97;3.09;0.81
65875;SPS30;52657;51.128;5.938;2024-02-23T02:34:45;1.43;1.31;1.08;0.74;5.96;5.95;5.88;5.57;4.34;0.80
65875;SPS30;52657;51.128;5.938;2024-02-23T02:37:10;1.21;1.11;0.92;0.65;5.18;5.17;5.12;4.87;3.82;0.79
65875;SPS30;52657;51.128;5.938;2024-02-23T02:39:36;1.42;1.30;1.07;0.75;6.03;6.02;5.96;5.65;4.43;0.79
65875;SPS30;52657;51.128;5.938;2024-02-23T02:42:02;1.34;1.23;1.01;0.71;5.67;5.66;5.61;5.32;4.17;0.79
65875;SPS30;52657;51.128;5.938;2024-02-23T02:44:28;1.22;1.13;0.94;0.68;5.45;5.44;5.39;5.14;4.07;0.78
65875;SPS30;52657;51.128;5.938;2024-02-23T02:46:58;1.26;1.17;0.98;0.71;5.65;5.64;5.59;5.34;4.23;0.77
65875;SPS30;52657;51.128;5.938;2024-02-23T02:49:24;1.46;1.34;1.11;0.79;6.33;6.32;6.26;5.95;4.69;0.79
65875;SPS30;52657;51.128;5.938;2024-02-23T02:51:50;1.53;1.40;1.16;0.81;6.48;6.47;6.41;6.08;4.76;0.81
65875;SPS30;52657;51.128;5.938;2024-02-23T02:54:15;1.61;1.48;1.20;0.83;6.61;6.60;6.53;6.17;4.79;0.82
65875;SPS30;52657;51.128;5.938;2024-02-23T02:56:42;1.20;1.10;0.90;0.63;5.01;5.00;4.95;4.68;3.66;0.81
65875;SPS30;52657;51.128;5.938;2024-02-23T02:59:08;1.28;1.18;0.97;0.68;5.48;5.47;5.41;5.14;4.03;0.81
65875;SPS30;52657;51.128;5.938;2024-02-23T03:01:35;1.22;1.12;0.92;0.65;5.21;5.21;5.15;4.90;3.84;0.81
65875;SPS30;52657;51.128;5.938;2024-02-23T03:04:00;1.30;1.19;0.98;0.67;5.40;5.39;5.33;5.04;3.93;0.81
65875;SPS30;52657;51.128;5.938;2024-02-23T03:06:26;1.33;1.22;0.99;0.67;5.40;5.39;5.33;5.03;3.89;0.83
65875;SPS30;52657;51.128;5.938;2024-02-23T03:08:52;1.56;1.42;1.15;0.78;6.26;6.25;6.18;5.82;4.50;0.83
65875;SPS30;52657;51.128;5.938;2024-02-23T03:11:17;1.46;1.33;1.09;0.75;5.98;5.97;5.90;5.58;4.33;0.82
65875;SPS30;52657;51.128;5.938;2024-02-23T03:13:44;1.50;1.38;1.14;0.80;6.40;6.39;6.32;6.00;4.70;0.80
65875;SPS30;52657;51.128;5.938;2024-02-23T03:16:16;1.46;1.34;1.12;0.80;6.38;6.37;6.31;6.00;4.74;0.78
65875;SPS30;52657;51.128;5.938;2024-02-23T03:18:43;1.36;1.25;1.05;0.75;6.02;6.01;5.96;5.68;4.50;0.78
65875;SPS30;52657;51.128;5.938;2024-02-23T03:21:09;1.50;1.38;1.16;0.83;6.64;6.63;6.57;6.26;4.95;0.78
65875;SPS30;52657;51.128;5.938;2024-02-23T03:23:35;1.33;1.23;1.04;0.76;6.05;6.04;5.99;5.73;4.56;0.77
65875;SPS30;52657;51.128;5.938;2024-02-23T03:26:02;1.40;1.31;1.12;0.84;6.74;6.73;6.68;6.42;5.17;0.74
65875;SPS30;52657;51.128;5.938;2024-02-23T03:28:28;1.44;1.34;1.15;0.85;6.84;6.83;6.77;6.50;5.22;0.75
65875;SPS30;52657;51.128;5.938;2024-02-23T03:30:54;1.51;1.39;1.17;0.85;6.79;6.78;6.72;6.42;5.10;0.76
65875;SPS30;52657;51.128;5.938;2024-02-23T03:33:19;1.53;1.42;1.19;0.87;6.94;6.93;6.87;6.56;5.22;0.74
65875;SPS30;52657;51.128;5.938;2024-02-23T03:35:46;1.52;1.40;1.16;0.82;6.55;6.54;6.48;6.16;4.84;0.75
65875;SPS30;52657;51.128;5.938;2024-02-23T03:38:11;1.51;1.39;1.15;0.80;6.42;6.41;6.35;6.02;4.71;0.75
65875;SPS30;52657;51.128;5.938;2024-02-23T03:40:37;1.50;1.37;1.13;0.79;6.29;6.28;6.21;5.89;4.60;0.75
65875;SPS30;52657;51.128;5.938;2024-02-23T03:43:03;1.68;1.54;1.27;0.89;7.08;7.07;7.00;6.64;5.19;0.75
65875;SPS30;52657;51.128;5.938;2024-02-23T03:45:29;1.66;1.52;1.25;0.87;6.94;6.93;6.85;6.49;5.06;0.76
65875;SPS30;52657;51.128;5.938;2024-02-23T03:47:54;1.88;1.72;1.41;0.97;7.73;7.72;7.63;7.21;5.60;0.78
65875;SPS30;52657;51.128;5.938;2024-02-23T03:50:20;2.02;1.85;1.51;1.04;8.30;8.29;8.20;7.74;6.01;0.77
65875;SPS30;52657;51.128;5.938;2024-02-23T03:52:46;1.59;1.45;1.18;0.81;6.50;6.49;6.42;6.07;4.71;0.76
65875;SPS30;52657;51.128;5.938;2024-02-23T03:55:12;1.79;1.64;1.35;0.93;7.44;7.43;7.35;6.95;5.42;0.76
65875;SPS30;52657;51.128;5.938;2024-02-23T03:57:37;1.85;1.69;1.38;0.95;7.59;7.58;7.50;7.08;5.50;0.78
65875;SPS30;52657;51.128;5.938;2024-02-23T04:00:03;1.96;1.78;1.43;0.96;7.66;7.64;7.55;7.09;5.44;0.81
65875;SPS30;52657;51.128;5.938;2024-02-23T04:02:38;2.24;2.04;1.66;1.13;9.02;9.00;8.90;8.39;6.48;0.81
65875;SPS30;52657;51.128;5.938;2024-02-23T04:05:03;2.04;1.86;1.51;1.02;8.14;8.12;8.03;7.56;5.83;0.82
65875;SPS30;52657;51.128;5.938;2024-02-23T04:07:30;2.20;1.99;1.59;1.04;8.31;8.29;8.19;7.65;5.81;0.84
65875;SPS30;52657;51.128;5.938;2024-02-23T04:09:56;2.53;2.29;1.81;1.17;9.34;9.32;9.19;8.57;6.46;0.84
65875;SPS30;52657;51.128;5.938;2024-02-23T04:12:22;2.44;2.21;1.77;1.16;9.26;9.25;9.13;8.54;6.49;0.83
65875;SPS30;52657;51.128;5.938;2024-02-23T04:14:49;2.31;2.10;1.68;1.11;8.89;8.87;8.76;8.21;6.27;0.82
65875;SPS30;52657;51.128;5.938;2024-02-23T04:17:15;2.50;2.26;1.80;1.18;9.44;9.42;9.30;8.69;6.60;0.83
65875;SPS30;52657;51.128;5.938;2024-02-23T04:19:41;2.64;2.38;1.88;1.19;9.55;9.52;9.39;8.73;6.54;0.85
65875;SPS30;52657;51.128;5.938;2024-02-23T04:22:07;2.34;2.10;1.64;1.03;8.23;8.21;8.09;7.49;5.57;0.87
65875;SPS30;52657;51.128;5.938;2024-02-23T04:24:38;2.25;2.03;1.59;1.01;8.05;8.03;7.92;7.35;5.49;0.86
65875;SPS30;52657;51.128;5.938;2024-02-23T04:27:05;2.24;2.02;1.60;1.03;8.21;8.19;8.08;7.52;5.66;0.85
65875;SPS30;52657;51.128;5.938;2024-02-23T04:29:34;2.22;2.01;1.60;1.05;8.39;8.37;8.26;7.73;5.87;0.83
65875;SPS30;52657;51.128;5.938;2024-02-23T04:32:00;2.41;2.18;1.74;1.14;9.13;9.11;8.99;8.41;6.40;0.83
65875;SPS30;52657;51.128;5.938;2024-02-23T04:34:27;2.06;1.87;1.50;1.00;7.97;7.95;7.86;7.37;5.63;0.82
65875;SPS30;52657;51.128;5.938;2024-02-23T04:36:53;2.17;1.97;1.56;1.01;8.08;8.06;7.96;7.42;5.61;0.83
65875;SPS30;52657;51.128;5.938;2024-02-23T04:39:19;2.46;2.22;1.75;1.11;8.91;8.89;8.77;8.15;6.11;0.84
65875;SPS30;52657;51.128;5.938;2024-02-23T04:41:44;2.73;2.46;1.92;1.20;9.57;9.55;9.41;8.70;6.46;0.87
65875;SPS30;52657;51.128;5.938;2024-02-23T04:44:10;2.60;2.34;1.83;1.14;9.11;9.09;8.96;8.29;6.15;0.89
65875;SPS30;52657;51.128;5.938;2024-02-23T04:46:36;2.64;2.37;1.86;1.17;9.36;9.34;9.20;8.53;6.35;0.88
65875;SPS30;52657;51.128;5.938;2024-02-23T04:49:02;2.46;2.22;1.74;1.10;8.82;8.80;8.68;8.05;6.02;0.87
65875;SPS30;52657;51.128;5.938;2024-02-23T04:51:28;2.62;2.36;1.86;1.17;9.37;9.35;9.21;8.55;6.38;0.88
65875;SPS30;52657;51.128;5.938;2024-02-23T04:53:53;2.63;2.35;1.81;1.08;8.69;8.66;8.52;7.82;5.68;0.92
65875;SPS30;52657;51.128;5.938;2024-02-23T04:56:19;2.82;2.52;1.94;1.16;9.33;9.30;9.15;8.39;6.10;0.92
65875;SPS30;52657;51.128;5.938;2024-02-23T04:58:46;2.63;2.36;1.84;1.13;9.09;9.06;8.93;8.24;6.08;0.90
65875;SPS30;52657;51.128;5.938;2024-02-23T05:01:12;2.76;2.47;1.92;1.17;9.41;9.38;9.24;8.51;6.26;0.91
65875;SPS30;52657;51.128;5.938;2024-02-23T05:03:38;2.93;2.63;2.05;1.27;10.18;10.15;10.00;9.24;6.84;0.91
65875;SPS30;52657;51.128;5.938;2024-02-23T05:06:04;2.59;2.33;1.83;1.15;9.22;9.20;9.07;8.41;6.27;0.90
65875;SPS30;52657;51.128;5.938;2024-02-23T05:08:30;2.65;2.39;1.89;1.20;9.64;9.62;9.49;8.82;6.62;0.88
65875;SPS30;52657;51.128;5.938;2024-02-23T05:10:56;2.78;2.50;1.96;1.23;9.87;9.85;9.70;8.99;6.70;0.90
65875;SPS30;52657;51.128;5.938;2024-02-23T05:13:23;2.96;2.67;2.09;1.31;10.50;10.47;10.32;9.57;7.13;0.90
65875;SPS30;52657;51.128;5.938;2024-02-23T05:15:48;3.10;2.79;2.19;1.37;10.97;10.94;10.78;9.99;7.43;0.89
65875;SPS30;52657;51.128;5.938;2024-02-23T05:18:14;2.51;2.27;1.80;1.16;9.28;9.26;9.13;8.51;6.42;0.87
65875;SPS30;52657;51.128;5.938;2024-02-23T05:20:40;2.34;2.12;1.67;1.08;8.61;8.59;8.48;7.90;5.95;0.87
65875;SPS30;52657;51.128;5.938;2024-02-23T05:23:05;2.51;2.27;1.79;1.15;9.17;9.15;9.03;8.40;6.32;0.87
65875;SPS30;52657;51.128;5.938;2024-02-23T05:25:31;2.29;2.07;1.63;1.05;8.38;8.36;8.25;7.68;5.77;0.88
65875;SPS30;52657;51.128;5.938;2024-02-23T05:27:57;2.57;2.32;1.83;1.17;9.35;9.33;9.20;8.56;6.43;0.88
65875;SPS30;52657;51.128;5.938;2024-02-23T05:30:22;2.86;2.58;2.02;1.27;10.21;10.18;10.04;9.31;6.95;0.89
65875;SPS30;52657;51.128;5.938;2024-02-23T05:32:48;3.07;2.75;2.15;1.33;10.63;10.60;10.44;9.64;7.13;0.89
65875;SPS30;52657;51.128;5.938;2024-02-23T05:35:14;3.13;2.81;2.18;1.33;10.64;10.61;10.44;9.62;7.06;0.91
65875;SPS30;52657;51.128;5.938;2024-02-23T05:37:40;2.77;2.49;1.95;1.21;9.71;9.68;9.54;8.83;6.55;0.89
65875;SPS30;52657;51.128;5.938;2024-02-23T05:40:07;2.49;2.26;1.80;1.18;9.42;9.40;9.28;8.68;6.59;0.86
65875;SPS30;52657;51.128;5.938;2024-02-23T05:42:35;2.53;2.30;1.83;1.20;9.57;9.55;9.42;8.81;6.69;0.87
65875;SPS30;52657;51.128;5.938;2024-02-23T05:45:02;2.64;2.40;1.93;1.28;10.23;10.21;10.09;9.46;7.24;0.86
65875;SPS30;52657;51.128;5.938;2024-02-23T05:47:30;2.57;2.34;1.90;1.29;10.31;10.29;10.18;9.59;7.40;0.84
65875;SPS30;52657;51.128;5.938;2024-02-23T05:49:56;2.54;2.32;1.91;1.32;10.58;10.56;10.45;9.89;7.72;0.81
65875;SPS30;52657;51.128;5.938;2024-02-23T05:52:21;2.38;2.17;1.77;1.21;9.65;9.63;9.52;8.98;6.95;0.82
65875;SPS30;52657;51.128;5.938;2024-02-23T05:54:48;2.40;2.19;1.79;1.23;9.80;9.79;9.68;9.14;7.10;0.81
65875;SPS30;52657;51.128;5.938;2024-02-23T05:57:13;2.75;2.51;2.04;1.39;11.14;11.12;10.99;10.37;8.02;0.82
65875;SPS30;52657;51.128;5.938;2024-02-23T05:59:39;2.44;2.22;1.80;1.21;9.69;9.67;9.56;9.00;6.93;0.81
65875;SPS30;52657;51.128;5.938;2024-02-23T06:02:05;2.34;2.14;1.75;1.20;9.57;9.55;9.45;8.92;6.92;0.79
65875;SPS30;52657;51.128;5.938;2024-02-23T06:04:31;2.54;2.32;1.90;1.32;10.53;10.51;10.40;9.84;7.66;0.79
65875;SPS30;52657;51.128;5.938;2024-02-23T06:06:57;2.29;2.10;1.72;1.20;9.57;9.55;9.45;8.94;6.97;0.79
65875;SPS30;52657;51.128;5.938;2024-02-23T06:09:22;2.27;2.08;1.72;1.22;9.73;9.71;9.61;9.13;7.17;0.78
65875;SPS30;52657;51.128;5.938;2024-02-23T06:11:48;2.47;2.27;1.86;1.29;10.32;10.30;10.19;9.65;7.53;0.78
65875;SPS30;52657;51.128;5.938;2024-02-23T06:14:14;2.58;2.35;1.93;1.33;10.61;10.59;10.47;9.90;7.70;0.79
65875;SPS30;52657;51.128;5.938;2024-02-23T06:16:39;2.12;1.96;1.64;1.17;9.39;9.37;9.29;8.85;7.00;0.79
65875;SPS30;52657;51.128;5.938;2024-02-23T06:19:05;2.17;2.00;1.68;1.21;9.66;9.64;9.55;9.11;7.21;0.79
65875;SPS30;52657;51.128;5.938;2024-02-23T06:21:31;2.22;2.04;1.68;1.18;9.43;9.42;9.32;8.85;6.93;0.81
65875;SPS30;52657;51.128;5.938;2024-02-23T06:23:57;2.31;2.10;1.71;1.15;9.24;9.22;9.12;8.59;6.63;0.83
65875;SPS30;52657;51.128;5.938;2024-02-23T06:26:23;2.28;2.08;1.68;1.12;8.97;8.95;8.84;8.31;6.38;0.83
65875;SPS30;52657;51.128;5.938;2024-02-23T06:28:49;2.74;2.49;2.00;1.32;10.56;10.54;10.41;9.76;7.45;0.83
65875;SPS30;52657;51.128;5.938;2024-02-23T06:31:15;2.26;2.06;1.67;1.12;8.98;8.97;8.86;8.34;6.43;0.82
65875;SPS30;52657;51.128;5.938;2024-02-23T06:33:40;2.09;1.91;1.56;1.07;8.54;8.52;8.43;7.96;6.17;0.82
65875;SPS30;52657;51.128;5.938;2024-02-23T06:36:06;2.34;2.14;1.75;1.20;9.64;9.62;9.52;9.00;7.00;0.82
65875;SPS30;52657;51.128;5.938;2024-02-23T06:38:33;2.31;2.11;1.73;1.20;9.61;9.59;9.49;8.99;7.01;0.81
65875;SPS30;52657;51.128;5.938;2024-02-23T06:40:59;2.51;2.30;1.88;1.29;10.33;10.31;10.20;9.64;7.48;0.81
65875;SPS30;52657;51.128;5.938;2024-02-23T06:43:25;2.69;2.45;1.99;1.35;10.77;10.75;10.62;10.01;7.72;0.81
65875;SPS30;52657;51.128;5.938;2024-02-23T06:45:50;2.95;2.70;2.20;1.51;12.11;12.09;11.96;11.30;8.77;0.81
65875;SPS30;52657;51.128;5.938;2024-02-23T06:48:16;2.66;2.45;2.02;1.43;11.40;11.39;11.27;10.71;8.40;0.78
65875;SPS30;52657;51.128;5.938;2024-02-23T06:50:43;2.42;2.21;1.82;1.26;10.09;10.07;9.97;9.44;7.36;0.78
65875;SPS30;52657;51.128;5.938;2024-02-23T06:53:09;2.06;1.89;1.55;1.08;8.60;8.59;8.50;8.05;6.27;0.78
65875;SPS30;52657;51.128;5.938;2024-02-23T06:55:35;2.68;2.45;2.00;1.37;11.00;10.98;10.86;10.26;7.97;0.80
65875;SPS30;52657;51.128;5.938;2024-02-23T06:58:05;2.86;2.61;2.11;1.43;11.41;11.39;11.26;10.60;8.17;0.81
65875;SPS30;52657;51.128;5.938;2024-02-23T07:00:32;2.46;2.25;1.83;1.25;10.04;10.02;9.91;9.36;7.26;0.79
65875;SPS30;52657;51.128;5.938;2024-02-23T07:02:58;2.44;2.23;1.82;1.24;9.96;9.94;9.83;9.28;7.19;0.81
65875;SPS30;52657;51.128;5.938;2024-02-23T07:05:28;2.36;2.14;1.71;1.12;8.99;8.97;8.86;8.29;6.31;0.83
65875;SPS30;52657;51.128;5.938;2024-02-23T07:07:54;2.23;2.03;1.63;1.08;8.63;8.62;8.51;7.98;6.10;0.81
65875;SPS30;52657;51.128;5.938;2024-02-23T07:10:23;2.71;2.46;1.96;1.29;10.31;10.29;10.16;9.50;7.23;0.82
65875;SPS30;52657;51.128;5.938;2024-02-23T07:12:50;2.44;2.20;1.73;1.10;8.79;8.77;8.64;8.03;6.01;0.84
65875;SPS30;52657;51.128;5.938;2024-02-23T07:15:19;2.62;2.36;1.85;1.16;9.25;9.23;9.10;8.43;6.27;0.86
65875;SPS30;52657;51.128;5.938;2024-02-23T07:17:46;2.50;2.26;1.78;1.13;9.04;9.02;8.89;8.26;6.19;0.85
65875;SPS30;52657;51.128;5.938;2024-02-23T07:20:12;2.71;2.45;1.93;1.23;9.88;9.86;9.73;9.05;6.80;0.85
65875;SPS30;52657;51.128;5.938;2024-02-23T07:22:38;2.83;2.54;1.98;1.23;9.83;9.81;9.66;8.93;6.60;0.88
65875;SPS30;52657;51.128;5.938;2024-02-23T07:25:07;3.25;2.91;2.25;1.36;10.87;10.84;10.67;9.80;7.15;0.90
65875;SPS30;52657;51.128;5.938;2024-02-23T07:27:33;2.82;2.54;1.98;1.23;9.88;9.86;9.71;8.99;6.67;0.87
65875;SPS30;52657;51.128;5.938;2024-02-23T07:29:59;2.83;2.54;1.97;1.20;9.60;9.57;9.42;8.67;6.36;0.89
65875;SPS30;52657;51.128;5.938;2024-02-23T07:32:24;3.05;2.75;2.15;1.35;10.82;10.80;10.64;9.86;7.35;0.87
65875;SPS30;52657;51.128;5.938;2024-02-23T07:34:50;2.52;2.29;1.84;1.22;9.73;9.71;9.59;8.99;6.87;0.83
65875;SPS30;52657;51.128;5.938;2024-02-23T07:37:25;2.80;2.54;2.02;1.32;10.57;10.55;10.41;9.74;7.39;0.84
65875;SPS30;52657;51.128;5.938;2024-02-23T07:39:52;2.81;2.54;2.00;1.28;10.27;10.24;10.10;9.40;7.07;0.86
65875;SPS30;52657;51.128;5.938;2024-02-23T07:42:21;3.02;2.71;2.10;1.29;10.34;10.32;10.16;9.37;6.90;0.88
65875;SPS30;52657;51.128;5.938;2024-02-23T07:44:49;2.87;2.58;2.02;1.26;10.06;10.04;9.89;9.15;6.79;0.86
65875;SPS30;52657;51.128;5.938;2024-02-23T07:47:14;2.92;2.63;2.06;1.30;10.41;10.38;10.23;9.49;7.08;0.85
65875;SPS30;52657;51.128;5.938;2024-02-23T07:49:40;3.07;2.77;2.19;1.41;11.28;11.25;11.10;10.34;7.79;0.84
65875;SPS30;52657;51.128;5.938;2024-02-23T07:52:06;2.78;2.51;1.99;1.28;10.21;10.19;10.05;9.37;7.06;0.86
65875;SPS30;52657;51.128;5.938;2024-02-23T07:54:33;2.79;2.52;2.00;1.29;10.29;10.27;10.13;9.45;7.13;0.87
65875;SPS30;52657;51.128;5.938;2024-02-23T07:56:58;2.78;2.51;1.99;1.28;10.24;10.22;10.08;9.40;7.08;0.86
65875;SPS30;52657;51.128;5.938;2024-02-23T07:59:27;2.35;2.13;1.68;1.08;8.61;8.59;8.47;7.89;5.93;0.85
65875;SPS30;52657;51.128;5.938;2024-02-23T08:01:53;2.05;1.86;1.48;0.97;7.79;7.77;7.68;7.18;5.46;0.83
65875;SPS30;52657;51.128;5.938;2024-02-23T08:04:20;2.06;1.87;1.50;1.00;8.01;7.99;7.90;7.41;5.68;0.82
65875;SPS30;52657;51.128;5.938;2024-02-23T08:06:47;2.09;1.89;1.50;0.98;7.82;7.80;7.70;7.19;5.45;0.84
65875;SPS30;52657;51.128;5.938;2024-02-23T08:09:13;1.95;1.78;1.43;0.96;7.66;7.64;7.55;7.09;5.44;0.83
65875;SPS30;52657;51.128;5.938;2024-02-23T08:11:39;1.73;1.58;1.29;0.89;7.13;7.12;7.04;6.66;5.17;0.81
65875;SPS30;52657;51.128;5.938;2024-02-23T08:14:05;1.75;1.61;1.34;0.96;7.71;7.70;7.63;7.27;5.75;0.77
65875;SPS30;52657;51.128;5.938;2024-02-23T08:16:31;1.98;1.82;1.52;1.08;8.66;8.64;8.56;8.15;6.43;0.79
65875;SPS30;52657;51.128;5.938;2024-02-23T08:19:00;1.74;1.61;1.34;0.95;7.62;7.60;7.53;7.17;5.65;0.78
65875;SPS30;52657;51.128;5.938;2024-02-23T08:21:26;1.74;1.60;1.33;0.96;7.65;7.64;7.57;7.21;5.70;0.78
65875;SPS30;52657;51.128;5.938;2024-02-23T08:23:52;1.73;1.59;1.33;0.96;7.67;7.66;7.59;7.23;5.73;0.78
65875;SPS30;52657;51.128;5.938;2024-02-23T08:26:18;1.83;1.69;1.42;1.03;8.22;8.20;8.13;7.76;6.15;0.80
65875;SPS30;52657;51.128;5.938;2024-02-23T08:28:43;1.79;1.65;1.37;0.97;7.79;7.78;7.70;7.33;5.77;0.82
65875;SPS30;52657;51.128;5.938;2024-02-23T08:31:09;1.63;1.50;1.24;0.87;6.95;6.94;6.87;6.52;5.11;0.82
65875;SPS30;52657;51.128;5.938;2024-02-23T08:33:35;2.08;1.91;1.58;1.12;8.93;8.91;8.82;8.38;6.58;0.81
65875;SPS30;52657;51.128;5.938;2024-02-23T08:36:01;1.73;1.59;1.32;0.93;7.47;7.45;7.38;7.01;5.51;0.80
65875;SPS30;52657;51.128;5.938;2024-02-23T08:38:26;1.92;1.77;1.47;1.04;8.32;8.31;8.23;7.82;6.15;0.80
65875;SPS30;52657;51.128;5.938;2024-02-23T08:40:52;1.85;1.71;1.43;1.03;8.27;8.26;8.18;7.81;6.19;0.79
65875;SPS30;52657;51.128;5.938;2024-02-23T08:43:18;2.14;1.97;1.63;1.16;9.28;9.26;9.18;8.73;6.87;0.80
65875;SPS30;52657;51.128;5.938;2024-02-23T08:45:53;2.10;1.92;1.58;1.09;8.74;8.73;8.64;8.18;6.37;0.81
65875;SPS30;52657;51.128;5.938;2024-02-23T08:48:23;1.90;1.75;1.44;1.01;8.10;8.09;8.01;7.60;5.96;0.81
65875;SPS30;52657;51.128;5.938;2024-02-23T08:50:49;1.95;1.79;1.49;1.05;8.42;8.40;8.32;7.91;6.22;0.81
65875;SPS30;52657;51.128;5.938;2024-02-23T08:53:14;2.14;1.96;1.62;1.13;9.06;9.05;8.96;8.50;6.65;0.82
65875;SPS30;52657;51.128;5.938;2024-02-23T08:55:40;2.04;1.86;1.52;1.04;8.31;8.30;8.21;7.75;6.01;0.83
65875;SPS30;52657;51.128;5.938;2024-02-23T08:58:06;1.94;1.77;1.43;0.97;7.79;7.77;7.68;7.24;5.59;0.84
65875;SPS30;52657;51.128;5.938;2024-02-23T09:00:32;1.97;1.79;1.44;0.96;7.72;7.70;7.61;7.15;5.49;0.85
65875;SPS30;52657;51.128;5.938;2024-02-23T09:02:57;1.68;1.53;1.24;0.84;6.71;6.70;6.63;6.24;4.82;0.84
65875;SPS30;52657;51.128;5.938;2024-02-23T09:05:23;2.18;1.99;1.61;1.08;8.64;8.62;8.52;8.01;6.16;0.83
65875;SPS30;52657;51.128;5.938;2024-02-23T09:07:51;2.20;2.00;1.61;1.08;8.65;8.63;8.53;8.01;6.16;0.84
65875;SPS30;52657;51.128;5.938;2024-02-23T09:10:18;1.90;1.73;1.39;0.92;7.39;7.37;7.28;6.83;5.23;0.84
65875;SPS30;52657;51.128;5.938;2024-02-23T09:12:44;2.35;2.13;1.70;1.12;8.97;8.95;8.84;8.27;6.30;0.85
65875;SPS30;52657;51.128;5.938;2024-02-23T09:15:10;2.08;1.88;1.50;0.97;7.75;7.73;7.63;7.12;5.38;0.87
65875;SPS30;52657;51.128;5.938;2024-02-23T09:17:36;2.18;1.96;1.55;0.99;7.95;7.93;7.83;7.28;5.48;0.87
65875;SPS30;52657;51.128;5.938;2024-02-23T09:20:02;2.63;2.37;1.87;1.18;9.45;9.42;9.29;8.62;6.45;0.88
65875;SPS30;52657;51.128;5.938;2024-02-23T09:22:28;2.75;2.48;1.94;1.21;9.69;9.67;9.52;8.82;6.55;0.89
65875;SPS30;52657;51.128;5.938;2024-02-23T09:24:54;2.53;2.27;1.77;1.09;8.71;8.69;8.55;7.89;5.82;0.91
65875;SPS30;52657;51.128;5.938;2024-02-23T09:27:21;2.19;1.96;1.52;0.93;7.47;7.45;7.33;6.76;4.97;0.90
65875;SPS30;52657;51.128;5.938;2024-02-23T09:29:50;2.26;2.03;1.58;0.97;7.78;7.76;7.64;7.04;5.19;0.90
65875;SPS30;52657;51.128;5.938;2024-02-23T09:32:16;2.12;1.90;1.48;0.92;7.34;7.32;7.21;6.66;4.92;0.89